Time;durP1;ratioP1;P1;durP2;ratioP2;P2;SDS_P1;SDS_P2;PMS_P1;PMS_P2;Temp;Humidity;BMP_temperature;BMP_pressure;BME280_temperature;BME280_humidity;BME280_pressure;Samples;Min_cycle;Max_cycle;Signal;HPM_P1;HPM_P2
2023/02/27 00:01:11;;;;;;;0.98;0.60;;;21.00;49.00;;;;;;5041599;28;20575;-65
2023/02/27 00:03:37;;;;;;;0.90;0.50;;;21.00;49.00;;;;;;5035563;28;20075;-66
2023/02/27 00:06:03;;;;;;;0.70;0.60;;;21.00;49.00;;;;;;5043880;28;20029;-65
2023/02/27 00:08:28;;;;;;;0.77;0.60;;;21.00;49.00;;;;;;5038963;28;20025;-65
2023/02/27 00:10:54;;;;;;;0.60;0.43;;;21.00;49.00;;;;;;5037426;28;20089;-65
2023/02/27 00:13:20;;;;;;;0.55;0.50;;;21.00;49.00;;;;;;5040853;28;20066;-65
2023/02/27 00:15:46;;;;;;;1.88;0.50;;;20.90;49.00;;;;;;5038143;28;20107;-65
2023/02/27 00:18:12;;;;;;;0.60;0.50;;;20.90;48.90;;;;;;5040230;28;20037;-65
2023/02/27 00:20:38;;;;;;;0.80;0.50;;;20.90;48.90;;;;;;5039068;28;20025;-65
2023/02/27 00:23:08;;;;;;;0.88;0.50;;;20.90;48.90;;;;;;5038917;28;20456;-64
2023/02/27 00:25:34;;;;;;;1.63;0.80;;;20.90;48.90;;;;;;5041616;28;20058;-66
2023/02/27 00:28:00;;;;;;;1.08;0.50;;;20.90;48.90;;;;;;5042182;28;20026;-66
2023/02/27 00:30:25;;;;;;;0.73;0.50;;;20.90;48.90;;;;;;5034334;28;20436;-66
2023/02/27 00:32:54;;;;;;;0.80;0.57;;;20.90;48.90;;;;;;5038978;28;20632;-66
2023/02/27 00:35:21;;;;;;;0.75;0.50;;;20.80;48.90;;;;;;5037438;28;20033;-66
2023/02/27 00:37:46;;;;;;;0.57;0.40;;;20.80;48.80;;;;;;5038627;28;20107;-66
2023/02/27 00:40:13;;;;;;;0.38;0.38;;;20.80;48.90;;;;;;5037430;28;20024;-65
2023/02/27 00:42:38;;;;;;;1.00;0.50;;;20.80;49.40;;;;;;5038648;28;20366;-66
2023/02/27 00:45:05;;;;;;;0.43;0.43;;;20.80;48.80;;;;;;5044652;28;20036;-66
2023/02/27 00:47:31;;;;;;;0.70;0.50;;;20.80;48.80;;;;;;5042778;28;20051;-66
2023/02/27 00:49:57;;;;;;;0.70;0.50;;;20.70;48.80;;;;;;5042814;28;20481;-66
2023/02/27 00:52:23;;;;;;;0.50;0.50;;;20.70;48.80;;;;;;5042284;28;20043;-66
2023/02/27 00:54:49;;;;;;;0.47;0.30;;;20.70;48.80;;;;;;5046657;28;20021;-66
2023/02/27 00:57:15;;;;;;;0.77;0.60;;;20.70;48.80;;;;;;5044398;28;20393;-66
2023/02/27 00:59:40;;;;;;;0.60;0.60;;;20.70;48.70;;;;;;5042709;28;20508;-65
2023/02/27 01:02:06;;;;;;;0.68;0.45;;;20.70;48.70;;;;;;5043485;28;20068;-66
2023/02/27 01:04:31;;;;;;;0.80;0.52;;;20.70;48.80;;;;;;5042137;28;20130;-66
2023/02/27 01:06:57;;;;;;;0.70;0.50;;;20.60;48.70;;;;;;5041922;28;20523;-66
2023/02/27 01:09:23;;;;;;;0.77;0.50;;;20.60;48.70;;;;;;5041739;28;20056;-66
2023/02/27 01:11:50;;;;;;;0.82;0.60;;;20.60;48.70;;;;;;5044655;28;20369;-66
2023/02/27 01:14:15;;;;;;;0.40;0.40;;;20.60;49.30;;;;;;5045473;28;20550;-66
2023/02/27 01:16:41;;;;;;;0.68;0.55;;;20.60;48.70;;;;;;5045189;28;20079;-66
2023/02/27 01:19:07;;;;;;;0.80;0.50;;;20.60;48.70;;;;;;5043028;28;20116;-66
2023/02/27 01:21:32;;;;;;;0.55;0.50;;;20.50;48.60;;;;;;5043271;28;20053;-65
2023/02/27 01:23:58;;;;;;;0.52;0.40;;;20.60;48.70;;;;;;5043664;28;20048;-66
2023/02/27 01:26:24;;;;;;;0.50;0.40;;;20.60;48.70;;;;;;5044533;28;20041;-66
2023/02/27 01:28:50;;;;;;;0.50;0.40;;;20.50;48.60;;;;;;5042942;28;20492;-66
2023/02/27 01:31:15;;;;;;;0.40;0.30;;;20.50;48.70;;;;;;5041013;28;20030;-66
2023/02/27 01:33:41;;;;;;;0.47;0.40;;;20.50;48.70;;;;;;5043635;28;20443;-65
2023/02/27 01:36:07;;;;;;;0.30;0.30;;;20.50;48.70;;;;;;5042401;28;20046;-65
2023/02/27 01:38:33;;;;;;;0.40;0.40;;;20.50;48.70;;;;;;5042013;28;20025;-65
2023/02/27 01:40:59;;;;;;;0.50;0.50;;;20.50;48.70;;;;;;5040419;28;20031;-66
2023/02/27 01:43:25;;;;;;;0.40;0.40;;;20.40;48.60;;;;;;5044192;28;20498;-65
2023/02/27 01:45:51;;;;;;;0.50;0.40;;;20.40;48.70;;;;;;5042617;28;20116;-66
2023/02/27 01:48:27;;;;;;;0.50;0.50;;;20.40;48.70;;;;;;5042407;28;20104;-66
2023/02/27 01:51:06;;;;;;;0.65;0.43;;;20.50;48.70;;;;;;5042047;28;20033;-65
2023/02/27 01:53:35;;;;;;;0.40;0.40;;;20.40;48.60;;;;;;5043313;28;20040;-65
2023/02/27 01:56:20;;;;;;;0.65;0.50;;;20.40;48.70;;;;;;5039636;28;20614;-65
2023/02/27 01:58:47;;;;;;;0.73;0.50;;;20.40;48.60;;;;;;5046051;28;20045;-65
2023/02/27 02:01:14;;;;;;;1.30;0.45;;;20.40;48.70;;;;;;5042486;28;20061;-66
2023/02/27 02:03:51;;;;;;;0.57;0.50;;;20.40;48.70;;;;;;5041973;28;20037;-65
2023/02/27 02:06:17;;;;;;;0.40;0.40;;;20.40;48.70;;;;;;5038593;28;20064;-65
2023/02/27 02:08:46;;;;;;;0.70;0.50;;;20.40;48.70;;;;;;5039785;28;20017;-65
2023/02/27 02:11:14;;;;;;;0.50;0.50;;;20.40;49.20;;;;;;5040344;28;20842;-65
2023/02/27 02:13:40;;;;;;;0.40;0.40;;;20.30;48.70;;;;;;5041059;28;20461;-65
2023/02/27 02:16:14;;;;;;;0.65;0.50;;;20.30;48.70;;;;;;5041667;28;20025;-66
2023/02/27 02:18:46;;;;;;;0.55;0.45;;;20.30;48.70;;;;;;5040184;28;20029;-65
2023/02/27 02:21:17;;;;;;;0.55;0.40;;;20.30;48.60;;;;;;5038096;28;20112;-66
2023/02/27 02:24:10;;;;;;;1.08;0.40;;;20.30;48.60;;;;;;5040729;28;20036;-66
2023/02/27 02:26:46;;;;;;;0.40;0.40;;;20.30;48.60;;;;;;5041346;28;20068;-65
2023/02/27 02:29:13;;;;;;;0.50;0.40;;;20.30;48.70;;;;;;5039662;28;20021;-65
2023/02/27 02:32:20;;;;;;;0.57;0.38;;;20.30;48.70;;;;;;5041427;28;20494;-65
2023/02/27 02:35:16;;;;;;;0.38;0.38;;;20.30;48.60;;;;;;4997436;28;20559;-66
2023/02/27 02:38:09;;;;;;;0.30;0.30;;;20.20;48.60;;;;;;4999392;28;20034;-66
2023/02/27 02:41:00;;;;;;;0.65;0.50;;;20.20;48.60;;;;;;5038520;28;20041;-66
2023/02/27 02:43:32;;;;;;;0.50;0.50;;;20.20;49.10;;;;;;5036325;28;20339;-66
2023/02/27 02:46:25;;;;;;;0.88;0.73;;;20.20;48.70;;;;;;5041749;28;20464;-66
2023/02/27 02:49:01;;;;;;;0.43;0.40;;;20.20;48.70;;;;;;5040266;28;20025;-66
2023/02/27 02:51:34;;;;;;;0.32;0.30;;;20.20;48.70;;;;;;5039486;28;20034;-66
2023/02/27 02:54:09;;;;;;;0.40;0.40;;;20.20;48.70;;;;;;5038111;28;20031;-65
2023/02/27 02:56:42;;;;;;;0.57;0.45;;;20.20;48.70;;;;;;5038592;28;20280;-66
2023/02/27 02:59:15;;;;;;;0.30;0.30;;;20.10;48.70;;;;;;5037578;28;20067;-66
2023/02/27 03:01:52;;;;;;;0.43;0.40;;;20.10;48.70;;;;;;5042608;28;20452;-66
2023/02/27 03:04:26;;;;;;;0.50;0.50;;;20.10;48.60;;;;;;5037757;28;20036;-66
2023/02/27 03:07:03;;;;;;;0.30;0.30;;;20.10;48.60;;;;;;5036029;28;20459;-66
2023/02/27 03:09:38;;;;;;;0.55;0.40;;;20.10;48.60;;;;;;5038923;28;20144;-66
2023/02/27 03:12:08;;;;;;;0.40;0.40;;;20.10;48.60;;;;;;5039286;28;20496;-66
2023/02/27 03:14:36;;;;;;;;;;;20.10;48.70;;;;;;5041142;28;20051;-66
2023/02/27 03:17:08;;;;;;;0.45;0.43;;;20.10;48.60;;;;;;5040876;28;19905;-66
2023/02/27 03:19:43;;;;;;;0.30;0.30;;;20.10;48.70;;;;;;5039126;28;20061;-66
2023/02/27 03:22:15;;;;;;;0.40;0.40;;;20.10;49.20;;;;;;5038659;28;20072;-66
2023/02/27 03:24:49;;;;;;;0.55;0.50;;;20.10;48.70;;;;;;5042065;28;20040;-66
2023/02/27 03:27:16;;;;;;;0.40;0.40;;;20.00;48.60;;;;;;5039369;28;20144;-66
2023/02/27 03:29:48;;;;;;;0.35;0.35;;;20.10;48.70;;;;;;5039913;28;20105;-66
2023/02/27 03:32:23;;;;;;;1.08;0.47;;;20.00;48.60;;;;;;5042683;28;20083;-66
2023/02/27 03:34:49;;;;;;;0.55;0.50;;;20.00;48.60;;;;;;5040683;28;20021;-66
2023/02/27 03:37:29;;;;;;;0.80;0.57;;;20.00;48.60;;;;;;5039377;28;20037;-66
2023/02/27 03:40:00;;;;;;;0.35;0.35;;;20.00;48.70;;;;;;5037789;28;20052;-66
2023/02/27 03:42:43;;;;;;;0.40;0.40;;;20.00;48.70;;;;;;5035549;28;20037;-66
2023/02/27 03:45:33;;;;;;;0.45;0.40;;;20.00;48.70;;;;;;5040021;28;20055;-66
2023/02/27 03:47:59;;;;;;;0.40;0.40;;;20.00;48.60;;;;;;5040796;28;20087;-66
2023/02/27 03:50:25;;;;;;;0.57;0.45;;;20.00;48.70;;;;;;5040475;28;20029;-66
2023/02/27 03:52:52;;;;;;;0.52;0.40;;;20.00;48.70;;;;;;5040706;28;20472;-66
2023/02/27 03:55:33;;;;;;;0.40;0.40;;;20.00;48.70;;;;;;5039016;28;20613;-66
2023/02/27 03:58:00;;;;;;;0.43;0.30;;;20.00;48.70;;;;;;5054302;28;20102;-65
2023/02/27 04:00:26;;;;;;;0.30;0.30;;;19.90;48.70;;;;;;5037922;28;20033;-65
2023/02/27 04:02:55;;;;;;;0.30;0.30;;;20.00;48.70;;;;;;5038096;28;20025;-66
2023/02/27 04:05:21;;;;;;;0.38;0.30;;;19.90;48.70;;;;;;5039727;28;20485;-66
2023/02/27 04:08:14;;;;;;;0.40;0.30;;;19.90;48.70;;;;;;5039925;28;20033;-66
2023/02/27 04:10:52;;;;;;;0.47;0.40;;;19.90;48.60;;;;;;5039062;28;20021;-66
2023/02/27 04:13:44;;;;;;;0.50;0.40;;;19.90;48.70;;;;;;5040694;28;20532;-66
2023/02/27 04:16:29;;;;;;;0.47;0.47;;;19.90;48.60;;;;;;5037025;28;20029;-66
2023/02/27 04:19:10;;;;;;;0.52;0.40;;;19.90;48.70;;;;;;5040596;28;20034;-66
2023/02/27 04:22:07;;;;;;;0.40;0.40;;;19.90;48.60;;;;;;5038867;28;20029;-66
2023/02/27 04:24:41;;;;;;;0.75;0.45;;;19.90;48.70;;;;;;5038178;28;20026;-66
2023/02/27 04:27:37;;;;;;;0.50;0.40;;;19.90;48.70;;;;;;5037167;28;20143;-66
2023/02/27 04:30:39;;;;;;;0.30;0.30;;;19.90;48.70;;;;;;5039733;28;20473;-65
2023/02/27 04:33:22;;;;;;;0.40;0.40;;;19.90;48.70;;;;;;5038762;28;20116;-66
2023/02/27 04:36:05;;;;;;;0.60;0.47;;;19.90;48.80;;;;;;5038553;28;20033;-65
2023/02/27 04:38:36;;;;;;;0.22;0.22;;;19.90;48.80;;;;;;5040269;28;20050;-66
2023/02/27 04:41:08;;;;;;;0.40;0.40;;;19.90;48.80;;;;;;5039976;28;20063;-65
2023/02/27 04:43:36;;;;;;;0.55;0.40;;;19.90;48.80;;;;;;5038932;28;20041;-65
2023/02/27 04:46:04;;;;;;;0.45;0.43;;;19.80;48.70;;;;;;5037848;28;20531;-66
2023/02/27 04:48:35;;;;;;;0.50;0.30;;;19.90;48.80;;;;;;5041251;28;20115;-65
2023/02/27 04:51:11;;;;;;;0.50;0.40;;;19.90;48.80;;;;;;5039511;28;20083;-63
2023/02/27 04:53:46;;;;;;;0.30;0.30;;;19.90;48.80;;;;;;5046853;28;20477;-62
2023/02/27 04:56:31;;;;;;;0.55;0.43;;;19.80;48.70;;;;;;5039469;28;20086;-62
2023/02/27 04:59:09;;;;;;;0.25;0.25;;;19.80;48.70;;;;;;5035563;28;20037;-61
2023/02/27 05:01:51;;;;;;;0.30;0.30;;;19.80;48.70;;;;;;5039829;28;20033;-62
2023/02/27 05:04:20;;;;;;;0.50;0.30;;;19.80;48.70;;;;;;5037558;28;20037;-63
2023/02/27 05:06:46;;;;;;;0.52;0.50;;;19.80;48.70;;;;;;5037344;28;20068;-62
2023/02/27 05:09:31;;;;;;;1.10;0.55;;;19.90;48.80;;;;;;5038096;28;20025;-62
2023/02/27 05:12:18;;;;;;;0.57;0.40;;;19.80;48.70;;;;;;5038649;28;20061;-62
2023/02/27 05:14:52;;;;;;;0.45;0.40;;;19.80;48.80;;;;;;5038942;28;20025;-63
2023/02/27 05:17:28;;;;;;;0.47;0.47;;;19.80;48.80;;;;;;5040837;28;20552;-62
2023/02/27 05:19:54;;;;;;;0.57;0.40;;;19.80;48.80;;;;;;5036784;28;20485;-62
2023/02/27 05:22:32;;;;;;;0.50;0.40;;;19.80;48.80;;;;;;5035795;28;20393;-62
2023/02/27 05:25:28;;;;;;;1.33;0.60;;;19.80;48.80;;;;;;5039479;28;20048;-63
2023/02/27 05:28:01;;;;;;;1.80;0.60;;;19.80;48.70;;;;;;5038847;28;20443;-62
2023/02/27 05:31:17;;;;;;;0.63;0.50;;;19.80;48.80;;;;;;5043137;28;20492;-62
2023/02/27 05:33:54;;;;;;;0.75;0.50;;;19.80;48.80;;;;;;5037183;28;20480;-63
2023/02/27 05:36:44;;;;;;;0.85;0.60;;;19.80;48.90;;;;;;5038878;28;20119;-63
2023/02/27 05:39:11;;;;;;;0.50;0.50;;;19.80;48.90;;;;;;5042277;28;20095;-63
2023/02/27 05:41:51;;;;;;;0.50;0.50;;;19.80;48.90;;;;;;5041117;28;20029;-63
2023/02/27 05:44:26;;;;;;;0.60;0.50;;;19.80;48.90;;;;;;5044812;28;20029;-63
2023/02/27 05:47:03;;;;;;;0.80;0.70;;;19.80;49.00;;;;;;5038378;28;20487;-63
2023/02/27 05:49:34;;;;;;;0.50;0.40;;;19.80;49.00;;;;;;5043644;28;20484;-63
2023/02/27 05:52:04;;;;;;;0.55;0.50;;;19.80;49.00;;;;;;5041648;28;20025;-63
2023/02/27 05:54:42;;;;;;;0.70;0.50;;;19.80;49.00;;;;;;5044826;28;20507;-63
2023/02/27 05:57:11;;;;;;;0.57;0.52;;;19.80;49.00;;;;;;5037794;28;20056;-63
2023/02/27 05:59:58;;;;;;;1.27;0.70;;;19.80;49.10;;;;;;5041079;28;20342;-62
2023/02/27 06:02:24;;;;;;;1.13;0.60;;;19.80;49.10;;;;;;5042654;28;20037;-64
2023/02/27 06:04:49;;;;;;;0.90;0.50;;;19.80;49.10;;;;;;5040727;28;20541;-63
2023/02/27 06:07:15;;;;;;;0.77;0.65;;;19.80;49.20;;;;;;5042293;28;20037;-63
2023/02/27 06:09:43;;;;;;;0.75;0.60;;;19.80;49.30;;;;;;5041258;28;20040;-63
2023/02/27 06:12:08;;;;;;;1.67;0.60;;;19.80;49.30;;;;;;5041611;28;20021;-63
2023/02/27 06:14:34;;;;;;;0.50;0.50;;;19.80;49.30;;;;;;5041469;28;20028;-62
2023/02/27 06:16:59;;;;;;;3.03;0.60;;;19.80;49.40;;;;;;5042775;28;20503;-63
2023/02/27 06:19:25;;;;;;;1.65;0.60;;;19.80;49.60;;;;;;5040092;28;20057;-62
2023/02/27 06:21:50;;;;;;;1.77;0.70;;;19.80;50.40;;;;;;5041241;28;20025;-63
2023/02/27 06:24:16;;;;;;;1.73;0.60;;;20.00;50.30;;;;;;5042088;28;20037;-62
2023/02/27 06:26:42;;;;;;;4.30;0.85;;;20.10;50.60;;;;;;5040866;28;20473;-63
2023/02/27 06:29:07;;;;;;;1.98;0.70;;;20.30;50.50;;;;;;5039919;28;20036;-63
2023/02/27 06:31:33;;;;;;;1.10;0.60;;;20.50;50.40;;;;;;5041394;28;20044;-63
2023/02/27 06:33:58;;;;;;;1.00;0.60;;;20.60;50.30;;;;;;5037252;28;20031;-63
2023/02/27 06:36:24;;;;;;;1.85;0.55;;;20.80;50.30;;;;;;5045151;28;20037;-64
2023/02/27 06:38:50;;;;;;;2.58;0.60;;;20.90;50.20;;;;;;5043573;28;20025;-63
2023/02/27 06:41:15;;;;;;;1.10;0.60;;;21.10;50.10;;;;;;5040934;28;20498;-63
2023/02/27 06:43:41;;;;;;;0.70;0.43;;;21.30;50.10;;;;;;5042501;28;20037;-63
2023/02/27 06:46:06;;;;;;;0.55;0.45;;;21.50;50.00;;;;;;5040310;28;20037;-63
2023/02/27 06:48:32;;;;;;;0.45;0.40;;;21.60;49.80;;;;;;5039151;28;20029;-63
2023/02/27 06:50:58;;;;;;;0.50;0.40;;;21.70;49.80;;;;;;5039060;28;20028;-62
2023/02/27 06:53:24;;;;;;;0.82;0.47;;;21.90;49.80;;;;;;5039394;28;20110;-63
2023/02/27 06:55:50;;;;;;;0.68;0.40;;;21.90;49.40;;;;;;5040172;28;20036;-63
2023/02/27 06:58:16;;;;;;;1.45;0.50;;;21.90;49.60;;;;;;5038186;28;20037;-63
2023/02/27 07:00:42;;;;;;;0.40;0.40;;;21.80;49.80;;;;;;5040092;28;20025;-63
2023/02/27 07:03:08;;;;;;;1.17;0.63;;;21.70;50.00;;;;;;5040764;28;20029;-63
2023/02/27 07:05:34;;;;;;;1.92;0.50;;;21.70;50.10;;;;;;5040873;28;20026;-63
2023/02/27 07:08:02;;;;;;;2.47;0.50;;;21.70;50.50;;;;;;5040902;28;20024;-63
2023/02/27 07:10:28;;;;;;;1.58;0.70;;;21.80;50.80;;;;;;5040910;28;20108;-63
2023/02/27 07:12:54;;;;;;;0.50;0.40;;;22.00;50.80;;;;;;5041589;28;20117;-63
2023/02/27 07:15:19;;;;;;;2.50;0.68;;;21.90;50.40;;;;;;5041261;28;20053;-63
2023/02/27 07:17:45;;;;;;;0.60;0.40;;;22.00;50.50;;;;;;5043481;28;20037;-64
2023/02/27 07:20:11;;;;;;;1.40;0.50;;;22.00;50.60;;;;;;5037657;28;20414;-63
2023/02/27 07:22:38;;;;;;;0.75;0.50;;;22.00;51.30;;;;;;5043140;28;20108;-63
2023/02/27 07:25:04;;;;;;;1.30;0.60;;;22.10;51.10;;;;;;5039548;28;20341;-63
2023/02/27 07:27:30;;;;;;;1.48;0.45;;;22.20;50.80;;;;;;5042017;28;20021;-63
2023/02/27 07:29:56;;;;;;;2.35;0.55;;;22.20;50.90;;;;;;5042720;28;20114;-63
2023/02/27 07:32:21;;;;;;;1.58;0.55;;;22.20;50.90;;;;;;5041993;28;20036;-63
2023/02/27 07:34:47;;;;;;;1.45;0.50;;;22.30;51.60;;;;;;5046114;28;20036;-63
2023/02/27 07:37:13;;;;;;;1.67;0.80;;;22.40;51.00;;;;;;5051084;28;20036;-63
2023/02/27 07:39:38;;;;;;;0.60;0.40;;;22.50;50.90;;;;;;5046956;28;20029;-63
2023/02/27 07:42:04;;;;;;;0.65;0.40;;;22.50;51.50;;;;;;5050578;28;20025;-63
2023/02/27 07:44:31;;;;;;;1.65;0.60;;;22.50;51.40;;;;;;5053317;28;20029;-64
2023/02/27 07:46:57;;;;;;;2.38;0.60;;;22.50;51.50;;;;;;5051131;28;20053;-63
2023/02/27 07:49:23;;;;;;;0.80;0.47;;;22.50;51.90;;;;;;5046651;28;20024;-64
2023/02/27 07:51:48;;;;;;;1.08;0.50;;;22.60;51.50;;;;;;5047797;28;20021;-63
2023/02/27 07:54:14;;;;;;;0.45;0.32;;;22.60;51.30;;;;;;5051343;28;20036;-63
2023/02/27 07:56:39;;;;;;;2.42;0.40;;;22.70;51.50;;;;;;5043314;28;20040;-62
2023/02/27 07:59:05;;;;;;;1.52;0.60;;;22.70;52.50;;;;;;5040074;28;20021;-63
2023/02/27 08:01:30;;;;;;;1.15;0.50;;;22.70;52.60;;;;;;5048443;28;20041;-63
2023/02/27 08:03:56;;;;;;;2.17;0.57;;;22.90;52.10;;;;;;5046784;28;20393;-63
2023/02/27 08:06:22;;;;;;;3.00;1.00;;;22.90;51.90;;;;;;5044887;28;20119;-61
2023/02/27 08:08:48;;;;;;;0.80;0.68;;;22.90;50.30;;;;;;5042791;28;20044;-60
2023/02/27 08:11:14;;;;;;;2.10;0.70;;;22.90;46.90;;;;;;5042661;28;20464;-61
2023/02/27 08:13:40;;;;;;;4.30;0.68;;;22.90;47.30;;;;;;5042755;28;20016;-61
2023/02/27 08:16:06;;;;;;;0.98;0.60;;;22.80;47.70;;;;;;5047370;28;20153;-60
2023/02/27 08:18:32;;;;;;;0.47;0.47;;;22.80;48.00;;;;;;5049028;28;20560;-61
2023/02/27 08:20:58;;;;;;;1.45;0.63;;;22.90;48.10;;;;;;5048629;28;20029;-62
2023/02/27 08:23:23;;;;;;;1.20;0.60;;;22.80;47.90;;;;;;5052227;28;20452;-61
2023/02/27 08:25:49;;;;;;;1.08;0.60;;;22.80;47.80;;;;;;5046015;28;20119;-62
2023/02/27 08:28:17;;;;;;;0.88;0.50;;;22.80;47.80;;;;;;5054115;28;20088;-61
2023/02/27 08:30:55;;;;;;;0.70;0.50;;;22.80;47.70;;;;;;5050440;28;20021;-62
2023/02/27 08:33:21;;;;;;;0.70;0.50;;;22.90;47.50;;;;;;5041433;28;20091;-62
2023/02/27 08:35:47;;;;;;;1.33;0.60;;;22.80;47.60;;;;;;5046749;28;20430;-62
2023/02/27 08:38:12;;;;;;;0.57;0.50;;;22.80;47.70;;;;;;5041055;28;20032;-62
2023/02/27 08:40:38;;;;;;;1.38;0.50;;;22.80;47.70;;;;;;5040702;28;20020;-62
2023/02/27 08:43:04;;;;;;;0.93;0.60;;;22.80;47.60;;;;;;5038239;28;20104;-62
2023/02/27 08:45:29;;;;;;;2.15;0.60;;;22.80;47.50;;;;;;5038091;28;20033;-62
2023/02/27 08:47:55;;;;;;;1.98;0.70;;;22.80;47.50;;;;;;5039010;28;20044;-62
2023/02/27 08:50:21;;;;;;;0.82;0.60;;;22.80;47.60;;;;;;5035179;28;20028;-62
2023/02/27 08:52:46;;;;;;;1.10;0.60;;;22.90;48.10;;;;;;5043061;28;20480;-62
2023/02/27 08:55:12;;;;;;;0.82;0.60;;;22.90;47.80;;;;;;5037694;28;20022;-62
2023/02/27 08:57:37;;;;;;;1.42;0.65;;;22.90;47.60;;;;;;5035825;28;20105;-63
2023/02/27 09:00:07;;;;;;;1.80;0.43;;;22.90;47.40;;;;;;5041563;28;20033;-63
2023/02/27 09:02:32;;;;;;;;;;;22.90;47.40;;;;;;5042474;28;20033;-62
2023/02/27 09:04:58;;;;;;;1.00;0.55;;;22.90;47.00;;;;;;5042699;28;19958;-62
2023/02/27 09:07:24;;;;;;;0.60;0.45;;;22.90;47.40;;;;;;5042370;28;20103;-63
2023/02/27 09:09:49;;;;;;;0.75;0.50;;;22.90;47.00;;;;;;5042839;28;20505;-62
2023/02/27 09:12:15;;;;;;;0.73;0.57;;;22.90;47.10;;;;;;5043424;28;20024;-63
2023/02/27 09:14:40;;;;;;;0.85;0.60;;;22.90;47.00;;;;;;5042437;28;20112;-62
2023/02/27 09:17:06;;;;;;;0.77;0.55;;;22.90;47.00;;;;;;5043743;28;20111;-63
2023/02/27 09:19:32;;;;;;;0.73;0.50;;;22.90;47.00;;;;;;5042689;28;20033;-63
2023/02/27 09:21:58;;;;;;;1.75;0.60;;;22.80;47.10;;;;;;5045861;28;20036;-62
2023/02/27 09:24:23;;;;;;;1.52;0.50;;;22.90;47.20;;;;;;5045874;28;20384;-63
2023/02/27 09:26:49;;;;;;;1.95;0.75;;;22.90;47.20;;;;;;5042035;28;20152;-63
2023/02/27 09:29:15;;;;;;;0.80;0.57;;;22.90;47.60;;;;;;5043651;28;20043;-63
2023/02/27 09:31:40;;;;;;;1.38;0.57;;;22.90;47.00;;;;;;5041238;28;20037;-64
2023/02/27 09:34:06;;;;;;;1.40;0.60;;;22.90;46.10;;;;;;5044618;28;20476;-63
2023/02/27 09:36:32;;;;;;;3.22;0.60;;;22.90;45.90;;;;;;5037998;28;20075;-63
2023/02/27 09:38:58;;;;;;;0.82;0.50;;;22.90;45.80;;;;;;5040335;28;20374;-63
2023/02/27 09:41:47;;;;;;;1.38;0.68;;;22.90;45.80;;;;;;5042966;28;20024;-63
2023/02/27 09:44:43;;;;;;;1.48;0.60;;;22.90;45.50;;;;;;5031787;28;20052;-64
2023/02/27 09:47:15;;;;;;;0.45;0.43;;;22.90;45.60;;;;;;5045554;28;20392;-63
2023/02/27 09:50:15;;;;;;;0.60;0.60;;;22.90;45.60;;;;;;5039199;28;20057;-63
2023/02/27 09:52:41;;;;;;;0.90;0.40;;;22.80;45.40;;;;;;5031501;28;20215;-63
2023/02/27 09:55:29;;;;;;;0.88;0.60;;;22.90;45.50;;;;;;5042788;28;20131;-64
2023/02/27 09:58:06;;;;;;;0.50;0.50;;;22.90;45.20;;;;;;5040220;28;20029;-64
2023/02/27 10:00:48;;;;;;;1.13;0.55;;;22.90;45.20;;;;;;5041452;28;20358;-62
2023/02/27 10:03:48;;;;;;;0.90;0.57;;;22.90;45.40;;;;;;5042091;28;20025;-67
2023/02/27 10:06:22;;;;;;;1.83;0.60;;;22.90;45.10;;;;;;5041845;28;20107;-67
2023/02/27 10:08:55;;;;;;;0.98;0.60;;;22.90;45.20;;;;;;5041511;28;20499;-67
2023/02/27 10:11:30;;;;;;;1.17;0.60;;;22.90;45.20;;;;;;5041507;28;20120;-67
2023/02/27 10:14:19;;;;;;;1.27;0.50;;;22.90;45.10;;;;;;5048359;28;20030;-67
2023/02/27 10:16:48;;;;;;;0.95;0.40;;;22.90;44.90;;;;;;5042083;28;20532;-67
2023/02/27 10:19:21;;;;;;;0.45;0.38;;;22.90;45.00;;;;;;5037758;28;20147;-67
2023/02/27 10:21:50;;;;;;;0.70;0.50;;;22.90;45.00;;;;;;5042340;28;20072;-67
2023/02/27 10:24:25;;;;;;;0.65;0.45;;;22.90;44.80;;;;;;5036607;28;20037;-67
2023/02/27 10:26:52;;;;;;;0.50;0.50;;;22.90;44.80;;;;;;5037264;28;20514;-67
2023/02/27 10:29:38;;;;;;;1.38;0.60;;;22.90;45.00;;;;;;5040115;28;20468;-66
2023/02/27 10:32:31;;;;;;;0.52;0.40;;;22.90;44.70;;;;;;5042606;28;20096;-67
2023/02/27 10:35:37;;;;;;;0.68;0.50;;;22.90;44.50;;;;;;5039655;28;20029;-67
2023/02/27 10:38:12;;;;;;;1.27;0.63;;;22.90;44.50;;;;;;5028915;28;20091;-66
2023/02/27 10:40:40;;;;;;;0.65;0.50;;;22.90;44.50;;;;;;5037609;28;20021;-67
2023/02/27 10:43:06;;;;;;;0.60;0.50;;;22.90;44.80;;;;;;5041248;28;20525;-69
2023/02/27 10:45:32;;;;;;;1.13;0.60;;;22.90;44.60;;;;;;5041688;28;20021;-69
2023/02/27 10:47:57;;;;;;;2.75;0.68;;;22.90;44.70;;;;;;5041682;28;20033;-69
2023/02/27 10:50:34;;;;;;;0.77;0.50;;;22.90;44.50;;;;;;5042556;28;20333;-69
2023/02/27 10:53:02;;;;;;;2.22;0.90;;;22.90;44.40;;;;;;5043945;28;20029;-70
2023/02/27 10:55:33;;;;;;;0.55;0.47;;;22.90;44.90;;;;;;5041227;28;20428;-68
2023/02/27 10:58:01;;;;;;;0.70;0.60;;;22.90;44.20;;;;;;5040674;28;20223;-69
2023/02/27 11:00:44;;;;;;;1.02;0.50;;;22.90;44.20;;;;;;5041300;28;20104;-68
2023/02/27 11:03:23;;;;;;;1.45;0.70;;;22.90;43.90;;;;;;5039508;28;20116;-68
2023/02/27 11:05:55;;;;;;;1.45;0.77;;;22.90;43.70;;;;;;5042729;28;20106;-68
2023/02/27 11:08:24;;;;;;;0.95;0.60;;;22.90;42.80;;;;;;5058012;28;20393;-68
2023/02/27 11:11:05;;;;;;;1.38;0.60;;;22.90;43.10;;;;;;5041151;28;20031;-68
2023/02/27 11:13:37;;;;;;;1.80;0.80;;;22.90;42.90;;;;;;5040983;28;20045;-68
2023/02/27 11:16:22;;;;;;;1.50;0.70;;;22.90;43.00;;;;;;5039213;28;20033;-68
2023/02/27 11:18:50;;;;;;;1.42;0.70;;;22.90;43.00;;;;;;5038698;28;20143;-68
2023/02/27 11:21:28;;;;;;;0.95;0.60;;;22.90;42.80;;;;;;5041465;28;20108;-69
2023/02/27 11:24:06;;;;;;;0.90;0.80;;;22.80;42.70;;;;;;5039127;28;20025;-68
2023/02/27 11:26:39;;;;;;;0.63;0.63;;;22.80;42.40;;;;;;5039867;28;20029;-69
2023/02/27 11:29:17;;;;;;;1.00;0.70;;;22.80;42.10;;;;;;5039891;28;20465;-70
2023/02/27 11:32:01;;;;;;;1.17;0.77;;;22.80;42.20;;;;;;5041529;28;20032;-69
2023/02/27 11:34:37;;;;;;;1.15;0.70;;;22.80;42.20;;;;;;5041897;28;20527;-69
2023/02/27 11:37:25;;;;;;;1.30;0.70;;;22.70;42.20;;;;;;5042367;28;20068;-69
2023/02/27 11:40:00;;;;;;;1.80;1.00;;;22.70;42.20;;;;;;5036256;28;20045;-69
2023/02/27 11:42:30;;;;;;;1.00;0.60;;;22.70;42.40;;;;;;5040615;28;20886;-69
2023/02/27 11:44:58;;;;;;;1.25;0.68;;;22.60;42.20;;;;;;5041656;28;20025;-68
2023/02/27 11:47:34;;;;;;;0.93;0.50;;;22.60;42.50;;;;;;5038829;28;20053;-69
2023/02/27 11:50:09;;;;;;;0.93;0.60;;;22.60;43.40;;;;;;5039466;28;20534;-69
2023/02/27 11:52:34;;;;;;;0.60;0.52;;;22.50;43.70;;;;;;5038525;28;20025;-69
2023/02/27 11:55:04;;;;;;;0.55;0.50;;;22.50;44.20;;;;;;5037975;28;20078;-68
2023/02/27 11:57:38;;;;;;;1.10;0.50;;;22.50;44.50;;;;;;5043164;28;20026;-71
2023/02/27 12:00:12;;;;;;;0.98;0.60;;;22.50;44.90;;;;;;5041793;28;20389;-69
2023/02/27 12:03:04;;;;;;;1.65;0.60;;;22.50;45.10;;;;;;5040959;28;20404;-69
2023/02/27 12:05:40;;;;;;;0.45;0.45;;;22.60;46.20;;;;;;5039359;28;20094;-70
2023/02/27 12:08:15;;;;;;;1.63;0.52;;;22.60;46.00;;;;;;5054852;28;20056;-70
2023/02/27 12:10:59;;;;;;;1.05;0.60;;;22.60;46.30;;;;;;5041919;28;20031;-70
2023/02/27 12:13:30;;;;;;;1.77;0.63;;;22.60;46.80;;;;;;5041505;28;20056;-68
2023/02/27 12:16:06;;;;;;;1.45;0.60;;;22.70;47.70;;;;;;5037291;28;20502;-68
2023/02/27 12:18:42;;;;;;;2.35;0.80;;;22.70;46.30;;;;;;5048574;28;20142;-70
2023/02/27 12:21:21;;;;;;;2.13;0.95;;;22.70;44.00;;;;;;5037656;28;20044;-67
2023/02/27 12:23:55;;;;;;;3.27;0.90;;;22.70;43.60;;;;;;5043667;28;20041;-67
2023/02/27 12:26:49;;;;;;;2.75;1.10;;;22.70;43.40;;;;;;5038895;28;20127;-67
2023/02/27 12:29:24;;;;;;;4.03;1.02;;;22.70;43.50;;;;;;5038987;28;20044;-67
2023/02/27 12:32:18;;;;;;;2.35;1.00;;;22.70;43.30;;;;;;5039421;28;20493;-68
2023/02/27 12:34:48;;;;;;;1.98;1.00;;;22.70;43.30;;;;;;5037310;28;20026;-67
2023/02/27 12:37:21;;;;;;;2.25;0.88;;;22.70;43.30;;;;;;5038035;28;20036;-67
2023/02/27 12:39:47;;;;;;;2.67;1.25;;;22.70;43.30;;;;;;5043687;28;20513;-68
2023/02/27 12:42:21;;;;;;;2.53;0.88;;;22.70;43.30;;;;;;5041106;28;20055;-69
2023/02/27 12:44:49;;;;;;;2.67;1.15;;;22.70;43.30;;;;;;5040485;28;20100;-67
2023/02/27 12:47:36;;;;;;;3.25;1.20;;;22.70;43.20;;;;;;5045078;28;20029;-68
2023/02/27 12:50:14;;;;;;;2.42;0.95;;;22.70;43.30;;;;;;5039296;28;20477;-68
2023/02/27 12:52:53;;;;;;;2.30;1.00;;;22.60;43.30;;;;;;5040119;28;20029;-67
2023/02/27 12:55:32;;;;;;;2.65;0.80;;;22.70;43.50;;;;;;5039285;28;20024;-68
2023/02/27 12:58:16;;;;;;;3.38;1.10;;;22.60;43.60;;;;;;5038586;28;20127;-68
2023/02/27 13:00:58;;;;;;;2.85;0.95;;;22.70;43.40;;;;;;5036742;28;20048;-68
2023/02/27 13:03:43;;;;;;;4.13;1.25;;;22.70;43.10;;;;;;5039329;28;20435;-67
2023/02/27 13:06:23;;;;;;;3.00;1.02;;;22.70;43.10;;;;;;5034338;28;20396;-66
2023/02/27 13:08:54;;;;;;;3.88;1.10;;;22.60;43.00;;;;;;5043006;28;20025;-67
2023/02/27 13:11:35;;;;;;;2.00;1.02;;;22.70;43.00;;;;;;5048331;28;20033;-67
2023/02/27 13:14:06;;;;;;;2.22;1.00;;;22.60;43.00;;;;;;5043148;28;20515;-67